Time;durP1;ratioP1;P1;durP2;ratioP2;P2;SDS_P1;SDS_P2;PMS_P1;PMS_P2;Temp;Humidity;BMP_temperature;BMP_pressure;BME280_temperature;BME280_humidity;BME280_pressure;Samples;Min_cycle;Max_cycle;Signal;HPM_P1;HPM_P2
2021/10/06 00:00:33;;;;;;;;;;;;;;;;;;2111691;27;4746;-76
2021/10/06 00:01:34;;;;;;;;;;;;;;;;;;2112165;27;3889;-75
2021/10/06 00:02:34;;;;;;;;;;;;;;;;;;2110235;27;4592;-75
2021/10/06 00:03:35;;;;;;;;;;;;;;;;;;2113529;27;2789;-75
2021/10/06 00:04:36;;;;;;;;;;;;;;;;;;2112156;27;4132;-76
2021/10/06 00:05:37;;;;;;;;;;;;;;;;;;2113503;27;4901;-75
2021/10/06 00:06:38;;;;;;;;;;;;;;;;;;2111358;27;4636;-76
2021/10/06 00:07:38;;;;;;;;;;;;;;;;;;2109934;27;2807;-76
2021/10/06 00:08:39;;;;;;;;;;;;;;;;;;2107393;27;5143;-76
2021/10/06 00:09:39;;;;;;;;;;;;;;;;;;2108957;27;1894;-75
2021/10/06 00:10:40;;;;;;;;;;;;;;;;;;2107400;27;4509;-75
2021/10/06 00:11:41;;;;;;;;;;;;;;;;;;2109142;27;2339;-76
2021/10/06 00:12:42;;;;;;;;;;;;;;;;;;2108787;27;3892;-75
2021/10/06 00:13:42;;;;;;;;;;;;;;;;;;2108125;27;4765;-76
2021/10/06 00:14:43;;;;;;;;;;;;;;;;;;2107342;27;5351;-75
2021/10/06 00:15:43;;;;;;;;;;;;;;;;;;2107912;27;2625;-75
2021/10/06 00:16:44;;;;;;;;;;;;;;;;;;2108830;27;1169;-75
2021/10/06 00:17:45;;;;;;;;;;;;;;;;;;2108922;27;4656;-75
2021/10/06 00:18:46;;;;;;;;;;;;;;;;;;2107193;27;4643;-75
2021/10/06 00:19:46;;;;;;;;;;;;;;;;;;2109275;27;1302;-75
2021/10/06 00:20:47;;;;;;;;;;;;;;;;;;2108841;27;2630;-75
2021/10/06 00:21:47;;;;;;;;;;;;;;;;;;2108268;27;4325;-76
2021/10/06 00:22:48;;;;;;;;;;;;;;;;;;2109355;27;1270;-76
2021/10/06 00:23:48;;;;;;;;;;;;;;;;;;2107932;27;5195;-76
2021/10/06 00:24:49;;;;;;;;;;;;;;;;;;2108462;27;4177;-75
2021/10/06 00:25:49;;;;;;;;;;;;;;;;;;2108610;27;4040;-76
2021/10/06 00:26:50;;;;;;;;;;;;;;;;;;2109179;27;2121;-76
2021/10/06 00:27:51;;;;;;;;;;;;;;;;;;2107768;27;5144;-76
2021/10/06 00:28:52;;;;;;;;;;;;;;;;;;2107245;27;5222;-75
2021/10/06 00:29:53;;;;;;;;;;;;;;;;;;2107904;27;4902;-76
2021/10/06 00:30:53;;;;;;;;;;;;;;;;;;2109807;27;1100;-76
2021/10/06 00:31:54;;;;;;;;;;;;;;;;;;2107858;27;2932;-75
2021/10/06 00:32:54;;;;;;;;;;;;;;;;;;2108672;27;3545;-75
2021/10/06 00:33:55;;;;;;;;;;;;;;;;;;2107667;27;3945;-75
2021/10/06 00:34:55;;;;;;;;;;;;;;;;;;2108312;27;4612;-75
2021/10/06 00:35:56;;;;;;;;;;;;;;;;;;2106601;27;1362;-76
2021/10/06 00:36:57;;;;;;;;;;;;;;;;;;2106644;27;2541;-76
2021/10/06 00:37:58;;;;;;;;;;;;;;;;;;2108551;27;2309;-76
2021/10/06 00:38:58;;;;;;;;;;;;;;;;;;2107719;27;4685;-75
2021/10/06 00:39:59;;;;;;;;;;;;;;;;;;2108422;27;2659;-75
2021/10/06 00:40:59;;;;;;;;;;;;;;;;;;2107893;27;2302;-75
2021/10/06 00:42:00;;;;;;;;;;;;;;;;;;2109614;27;2624;-75
2021/10/06 00:43:00;;;;;;;;;;;;;;;;;;2108680;27;4704;-75
2021/10/06 00:44:01;;;;;;;;;;;;;;;;;;2109191;27;2807;-76
2021/10/06 00:45:01;;;;;;;;;;;;;;;;;;2108238;27;4608;-76
2021/10/06 00:46:03;;;;;;;;;;;;;;;;;;2108937;27;4997;-75
2021/10/06 00:47:03;;;;;;;;;;;;;;;;;;2108899;27;5195;-76
2021/10/06 00:48:04;;;;;;;;;;;;;;;;;;2109256;27;1271;-75
2021/10/06 00:49:04;;;;;;;;;;;;;;;;;;2108599;27;4942;-75
2021/10/06 00:50:05;;;;;;;;;;;;;;;;;;2109237;27;2246;-75
2021/10/06 00:51:05;;;;;;;;;;;;;;;;;;2109421;27;1169;-75
2021/10/06 00:52:06;;;;;;;;;;;;;;;;;;2109856;27;2260;-75
2021/10/06 00:53:06;;;;;;;;;;;;;;;;;;2109626;27;2765;-75
2021/10/06 00:54:07;;;;;;;;;;;;;;;;;;2109652;27;2435;-75
2021/10/06 00:55:08;;;;;;;;;;;;;;;;;;2108661;27;1387;-75
2021/10/06 00:56:09;;;;;;;;;;;;;;;;;;2108597;27;4873;-76
2021/10/06 00:57:09;;;;;;;;;;;;;;;;;;2108535;27;4345;-76
2021/10/06 00:58:10;;;;;;;;;;;;;;;;;;2109934;27;4400;-75
2021/10/06 00:59:10;;;;;;;;;;;;;;;;;;2108036;27;4733;-75
2021/10/06 01:00:11;;;;;;;;;;;;;;;;;;2108948;27;2576;-75
2021/10/06 01:01:11;;;;;;;;;;;;;;;;;;2109004;27;2407;-75
2021/10/06 01:02:12;;;;;;;;;;;;;;;;;;2108680;27;2518;-75
2021/10/06 01:03:12;;;;;;;;;;;;;;;;;;2108804;27;5108;-75
2021/10/06 01:04:14;;;;;;;;;;;;;;;;;;2108531;27;2616;-76
2021/10/06 01:05:14;;;;;;;;;;;;;;;;;;2107772;27;5167;-76
2021/10/06 01:06:15;;;;;;;;;;;;;;;;;;2108272;27;4829;-75
2021/10/06 01:07:15;;;;;;;;;;;;;;;;;;2106656;27;4828;-75
2021/10/06 01:08:16;;;;;;;;;;;;;;;;;;2108083;27;2526;-75
2021/10/06 01:09:16;;;;;;;;;;;;;;;;;;2108101;27;4687;-75
2021/10/06 01:10:17;;;;;;;;;;;;;;;;;;2105155;27;2711;-75
2021/10/06 01:11:18;;;;;;;;;;;;;;;;;;2108972;27;2657;-75
2021/10/06 01:12:19;;;;;;;;;;;;;;;;;;2108115;27;4912;-75
2021/10/06 01:13:19;;;;;;;;;;;;;;;;;;2109151;27;2478;-75
2021/10/06 01:14:20;;;;;;;;;;;;;;;;;;2109740;27;1444;-75
2021/10/06 01:15:20;;;;;;;;;;;;;;;;;;2108908;27;4859;-75
2021/10/06 01:16:21;;;;;;;;;;;;;;;;;;2109454;27;2341;-75
2021/10/06 01:17:21;;;;;;;;;;;;;;;;;;2109731;27;1280;-75
2021/10/06 01:18:22;;;;;;;;;;;;;;;;;;2109580;27;4441;-75
2021/10/06 01:19:22;;;;;;;;;;;;;;;;;;2110311;27;5066;-75
2021/10/06 01:20:23;;;;;;;;;;;;;;;;;;2111755;27;1216;-75
2021/10/06 01:21:24;;;;;;;;;;;;;;;;;;2111944;27;1531;-75
2021/10/06 01:22:25;;;;;;;;;;;;;;;;;;2110502;27;4369;-75
2021/10/06 01:23:25;;;;;;;;;;;;;;;;;;2110757;27;5604;-76
2021/10/06 01:24:26;;;;;;;;;;;;;;;;;;2109410;27;2246;-75
2021/10/06 01:25:26;;;;;;;;;;;;;;;;;;2108444;27;3163;-75
2021/10/06 01:26:27;;;;;;;;;;;;;;;;;;2107766;27;4897;-75
2021/10/06 01:27:27;;;;;;;;;;;;;;;;;;2107325;27;4729;-75
2021/10/06 01:28:28;;;;;;;;;;;;;;;;;;2107044;27;4908;-75
2021/10/06 01:29:28;;;;;;;;;;;;;;;;;;2108459;27;2946;-75
2021/10/06 01:30:30;;;;;;;;;;;;;;;;;;2108162;27;1295;-75
2021/10/06 01:31:30;;;;;;;;;;;;;;;;;;2108399;27;2168;-75
2021/10/06 01:32:31;;;;;;;;;;;;;;;;;;2108771;27;2462;-75
2021/10/06 01:33:32;;;;;;;;;;;;;;;;;;2108292;27;1977;-75
2021/10/06 01:34:32;;;;;;;;;;;;;;;;;;2107511;27;2251;-75
2021/10/06 01:35:33;;;;;;;;;;;;;;;;;;2107985;27;2442;-75
2021/10/06 01:36:33;;;;;;;;;;;;;;;;;;2108153;27;2423;-75
2021/10/06 01:37:34;;;;;;;;;;;;;;;;;;2109317;27;1180;-75
2021/10/06 01:38:35;;;;;;;;;;;;;;;;;;2107292;27;4674;-76
2021/10/06 01:39:36;;;;;;;;;;;;;;;;;;2107962;27;2624;-76
2021/10/06 01:40:37;;;;;;;;;;;;;;;;;;2108002;27;3683;-75
2021/10/06 01:41:37;;;;;;;;;;;;;;;;;;2108782;27;2899;-76
2021/10/06 01:42:38;;;;;;;;;;;;;;;;;;2109327;27;1464;-76
2021/10/06 01:43:38;;;;;;;;;;;;;;;;;;2108706;27;1310;-75
2021/10/06 01:44:39;;;;;;;;;;;;;;;;;;2108821;27;2059;-75
2021/10/06 01:45:40;;;;;;;;;;;;;;;;;;2107982;27;2718;-75
2021/10/06 01:46:41;;;;;;;;;;;;;;;;;;2108344;27;1321;-75
2021/10/06 01:47:41;;;;;;;;;;;;;;;;;;2106867;27;4848;-75
2021/10/06 01:48:42;;;;;;;;;;;;;;;;;;2108007;27;4402;-75
2021/10/06 01:49:42;;;;;;;;;;;;;;;;;;2108841;27;1906;-75
2021/10/06 01:50:43;;;;;;;;;;;;;;;;;;2108124;27;5185;-75
2021/10/06 01:51:43;;;;;;;;;;;;;;;;;;2108663;27;2274;-75
2021/10/06 01:52:44;;;;;;;;;;;;;;;;;;2108787;27;4548;-75
2021/10/06 01:53:45;;;;;;;;;;;;;;;;;;2107162;27;4671;-75
2021/10/06 01:54:46;;;;;;;;;;;;;;;;;;2107747;27;4753;-75
2021/10/06 01:55:47;;;;;;;;;;;;;;;;;;2107814;27;2853;-76
2021/10/06 01:56:47;;;;;;;;;;;;;;;;;;2108537;27;1697;-75
2021/10/06 01:57:48;;;;;;;;;;;;;;;;;;2108672;27;1220;-75
2021/10/06 01:58:49;;;;;;;;;;;;;;;;;;2107460;27;4920;-75
2021/10/06 01:59:51;;;;;;;;;;;;;;;;;;2108427;27;1479;-75
2021/10/06 02:00:51;;;;;;;;;;;;;;;;;;2107454;27;2785;-75
2021/10/06 02:01:52;;;;;;;;;;;;;;;;;;2107383;27;1317;-75
2021/10/06 02:02:52;;;;;;;;;;;;;;;;;;2107576;27;1199;-75
2021/10/06 02:03:53;;;;;;;;;;;;;;;;;;2107388;27;2300;-75
2021/10/06 02:04:53;;;;;;;;;;;;;;;;;;2107188;27;2054;-75
2021/10/06 02:05:54;;;;;;;;;;;;;;;;;;2105438;27;2321;-75
2021/10/06 02:06:54;;;;;;;;;;;;;;;;;;2107451;27;4603;-75
2021/10/06 02:07:55;;;;;;;;;;;;;;;;;;2106250;27;4579;-75
2021/10/06 02:08:56;;;;;;;;;;;;;;;;;;2105918;27;3172;-75
2021/10/06 02:09:57;;;;;;;;;;;;;;;;;;2107646;27;2313;-75
2021/10/06 02:10:57;;;;;;;;;;;;;;;;;;2106418;27;2580;-75
2021/10/06 02:11:58;;;;;;;;;;;;;;;;;;2107357;27;4730;-75
2021/10/06 02:12:58;;;;;;;;;;;;;;;;;;2107870;27;1173;-76
2021/10/06 02:13:59;;;;;;;;;;;;;;;;;;2106369;27;2608;-75
2021/10/06 02:14:59;;;;;;;;;;;;;;;;;;2107327;27;1265;-75
2021/10/06 02:16:00;;;;;;;;;;;;;;;;;;2107736;27;1248;-75
2021/10/06 02:17:01;;;;;;;;;;;;;;;;;;2107000;27;4788;-75
2021/10/06 02:18:02;;;;;;;;;;;;;;;;;;2107953;27;2230;-75
2021/10/06 02:19:02;;;;;;;;;;;;;;;;;;2106479;27;4872;-75
2021/10/06 02:20:03;;;;;;;;;;;;;;;;;;2107820;27;1314;-76
2021/10/06 02:21:03;;;;;;;;;;;;;;;;;;2108142;27;1754;-76
2021/10/06 02:22:04;;;;;;;;;;;;;;;;;;2106004;27;3140;-75
2021/10/06 02:23:04;;;;;;;;;;;;;;;;;;2108101;27;1244;-75
2021/10/06 02:24:05;;;;;;;;;;;;;;;;;;2108318;27;2556;-75
2021/10/06 02:25:05;;;;;;;;;;;;;;;;;;2107208;27;4363;-76
2021/10/06 02:26:06;;;;;;;;;;;;;;;;;;2107750;27;2792;-76
2021/10/06 02:27:07;;;;;;;;;;;;;;;;;;2107805;27;4841;-75
2021/10/06 02:28:08;;;;;;;;;;;;;;;;;;2107193;27;5274;-75
2021/10/06 02:29:08;;;;;;;;;;;;;;;;;;2106412;27;4590;-75
2021/10/06 02:30:09;;;;;;;;;;;;;;;;;;2107999;27;2029;-75
2021/10/06 02:31:09;;;;;;;;;;;;;;;;;;2108262;27;3820;-75
2021/10/06 02:32:10;;;;;;;;;;;;;;;;;;2107915;27;5092;-75
2021/10/06 02:33:10;;;;;;;;;;;;;;;;;;2108554;27;1177;-75
2021/10/06 02:34:11;;;;;;;;;;;;;;;;;;2107432;27;4455;-74
2021/10/06 02:35:11;;;;;;;;;;;;;;;;;;2105764;27;4308;-75
2021/10/06 02:36:12;;;;;;;;;;;;;;;;;;2108082;27;2718;-76
2021/10/06 02:37:13;;;;;;;;;;;;;;;;;;2106775;27;4374;-76
2021/10/06 02:38:14;;;;;;;;;;;;;;;;;;2108793;27;4924;-75
2021/10/06 02:39:14;;;;;;;;;;;;;;;;;;2108962;27;4314;-75
2021/10/06 02:40:16;;;;;;;;;;;;;;;;;;2107904;27;5279;-75
2021/10/06 02:41:16;;;;;;;;;;;;;;;;;;2108395;27;5141;-75
2021/10/06 02:42:17;;;;;;;;;;;;;;;;;;2108374;27;4844;-75
2021/10/06 02:43:17;;;;;;;;;;;;;;;;;;2106631;27;2275;-75
2021/10/06 02:44:18;;;;;;;;;;;;;;;;;;2107811;27;1750;-76
2021/10/06 02:45:19;;;;;;;;;;;;;;;;;;2107634;27;1235;-76
2021/10/06 02:46:20;;;;;;;;;;;;;;;;;;2107797;27;1401;-75
2021/10/06 02:47:20;;;;;;;;;;;;;;;;;;2107981;27;1970;-76
2021/10/06 02:48:23;;;;;;;;;;;;;;;;;;2107575;27;4666;-76
2021/10/06 02:49:23;;;;;;;;;;;;;;;;;;2109856;27;4670;-75
2021/10/06 02:50:24;;;;;;;;;;;;;;;;;;2111079;27;1909;-76
2021/10/06 02:51:24;;;;;;;;;;;;;;;;;;2109862;27;3199;-76
2021/10/06 02:52:26;;;;;;;;;;;;;;;;;;2110940;27;1347;-75
2021/10/06 02:53:26;;;;;;;;;;;;;;;;;;2110408;27;1320;-75
2021/10/06 02:54:27;;;;;;;;;;;;;;;;;;2108413;27;3940;-75
2021/10/06 02:55:28;;;;;;;;;;;;;;;;;;2107093;27;1228;-76
2021/10/06 02:56:29;;;;;;;;;;;;;;;;;;2107754;27;1471;-76
2021/10/06 02:57:30;;;;;;;;;;;;;;;;;;2106808;27;4879;-75
2021/10/06 02:58:31;;;;;;;;;;;;;;;;;;2105972;27;4543;-75
2021/10/06 02:59:31;;;;;;;;;;;;;;;;;;2106999;27;3898;-75
2021/10/06 03:00:32;;;;;;;;;;;;;;;;;;2107224;27;2957;-75
2021/10/06 03:01:32;;;;;;;;;;;;;;;;;;2106729;27;1489;-76
2021/10/06 03:02:33;;;;;;;;;;;;;;;;;;2107178;27;4754;-75
2021/10/06 03:03:34;;;;;;;;;;;;;;;;;;2104694;27;4737;-75
2021/10/06 03:04:35;;;;;;;;;;;;;;;;;;2107562;27;1228;-76
2021/10/06 03:05:35;;;;;;;;;;;;;;;;;;2107716;27;1288;-76
2021/10/06 03:06:36;;;;;;;;;;;;;;;;;;2106753;27;5038;-76
2021/10/06 03:07:36;;;;;;;;;;;;;;;;;;2107615;27;3052;-75
2021/10/06 03:08:37;;;;;;;;;;;;;;;;;;2105711;27;4311;-75
2021/10/06 03:09:37;;;;;;;;;;;;;;;;;;2106724;27;3822;-75
2021/10/06 03:10:38;;;;;;;;;;;;;;;;;;2105961;27;3570;-75
2021/10/06 03:11:39;;;;;;;;;;;;;;;;;;2105805;27;4442;-76
2021/10/06 03:12:40;;;;;;;;;;;;;;;;;;2105251;27;3993;-75
2021/10/06 03:13:40;;;;;;;;;;;;;;;;;;2106337;27;1069;-76
2021/10/06 03:14:41;;;;;;;;;;;;;;;;;;2105815;27;1005;-75
2021/10/06 03:15:42;;;;;;;;;;;;;;;;;;2107075;27;4071;-75
2021/10/06 03:16:44;;;;;;;;;;;;;;;;;;2106578;27;1325;-75
2021/10/06 03:17:44;;;;;;;;;;;;;;;;;;2107678;27;3344;-75
2021/10/06 03:18:45;;;;;;;;;;;;;;;;;;2106834;27;4497;-75
2021/10/06 03:19:45;;;;;;;;;;;;;;;;;;2105070;27;4893;-75
2021/10/06 03:20:46;;;;;;;;;;;;;;;;;;2104672;27;5084;-76
2021/10/06 03:21:46;;;;;;;;;;;;;;;;;;2106201;27;1218;-75
2021/10/06 03:22:47;;;;;;;;;;;;;;;;;;2105517;27;1020;-75
2021/10/06 03:23:47;;;;;;;;;;;;;;;;;;2106526;27;1130;-75
2021/10/06 03:24:48;;;;;;;;;;;;;;;;;;2106269;27;1359;-75
2021/10/06 03:25:49;;;;;;;;;;;;;;;;;;2105508;27;4884;-75
2021/10/06 03:26:50;;;;;;;;;;;;;;;;;;2105947;27;1217;-76
2021/10/06 03:27:50;;;;;;;;;;;;;;;;;;2105887;27;2664;-75
2021/10/06 03:28:51;;;;;;;;;;;;;;;;;;2106231;27;2321;-75
2021/10/06 03:29:51;;;;;;;;;;;;;;;;;;2107436;27;1317;-75
2021/10/06 03:30:53;;;;;;;;;;;;;;;;;;2107138;27;1906;-75
2021/10/06 03:31:53;;;;;;;;;;;;;;;;;;2105544;27;2624;-75
2021/10/06 03:32:54;;;;;;;;;;;;;;;;;;2107452;27;1699;-75
2021/10/06 03:33:57;;;;;;;;;;;;;;;;;;2107247;27;1259;-75
2021/10/06 03:34:58;;;;;;;;;;;;;;;;;;2108382;27;1242;-76
2021/10/06 03:35:59;;;;;;;;;;;;;;;;;;2107924;28;4677;-76
2021/10/06 03:37:00;;;;;;;;;;;;;;;;;;2107649;27;2684;-75
2021/10/06 03:38:00;;;;;;;;;;;;;;;;;;2107744;27;1147;-75
2021/10/06 03:39:01;;;;;;;;;;;;;;;;;;2107440;28;4380;-75
2021/10/06 03:40:01;;;;;;;;;;;;;;;;;;2107812;27;1326;-75
2021/10/06 03:41:02;;;;;;;;;;;;;;;;;;2107287;27;2260;-75
2021/10/06 03:42:40;;;;;;;;;;;;;;;;;;2121495;27;1749;-76
2021/10/06 03:43:40;;;;;;;;;;;;;;;;;;2122740;27;1144;-75
2021/10/06 03:44:41;;;;;;;;;;;;;;;;;;2123756;27;1569;-75
2021/10/06 03:45:41;;;;;;;;;;;;;;;;;;2123364;27;1286;-76
2021/10/06 03:46:42;;;;;;;;;;;;;;;;;;2122348;27;4849;-76
2021/10/06 03:47:43;;;;;;;;;;;;;;;;;;2123208;27;1056;-75
2021/10/06 03:48:45;;;;;;;;;;;;;;;;;;2122971;27;2609;-75
2021/10/06 03:49:45;;;;;;;;;;;;;;;;;;2123789;27;1364;-75
2021/10/06 03:50:46;;;;;;;;;;;;;;;;;;2113957;27;1383;-75
2021/10/06 03:51:46;;;;;;;;;;;;;;;;;;2114892;27;1355;-75
2021/10/06 03:52:47;;;;;;;;;;;;;;;;;;2114560;27;1165;-75
2021/10/06 03:53:47;;;;;;;;;;;;;;;;;;2114982;27;1104;-76
2021/10/06 03:54:48;;;;;;;;;;;;;;;;;;2115252;27;1327;-76
2021/10/06 03:55:48;;;;;;;;;;;;;;;;;;2113860;27;5023;-75
2021/10/06 03:56:50;;;;;;;;;;;;;;;;;;2114968;27;1257;-76
2021/10/06 03:57:50;;;;;;;;;;;;;;;;;;2115189;27;1060;-75
2021/10/06 03:58:51;;;;;;;;;;;;;;;;;;2115287;27;4308;-75
2021/10/06 03:59:51;;;;;;;;;;;;;;;;;;2115388;27;1275;-75
2021/10/06 04:00:52;;;;;;;;;;;;;;;;;;2115371;27;2521;-75
2021/10/06 04:01:52;;;;;;;;;;;;;;;;;;2114789;27;2020;-75
2021/10/06 04:02:53;;;;;;;;;;;;;;;;;;2115462;27;1153;-75
2021/10/06 04:03:53;;;;;;;;;;;;;;;;;;2115529;27;1060;-76
2021/10/06 04:04:54;;;;;;;;;;;;;;;;;;2115934;27;1307;-75
2021/10/06 04:05:55;;;;;;;;;;;;;;;;;;2115324;27;4233;-76
2021/10/06 04:06:56;;;;;;;;;;;;;;;;;;2115440;27;1014;-76
2021/10/06 04:07:56;;;;;;;;;;;;;;;;;;2115442;27;1286;-75
2021/10/06 04:08:57;;;;;;;;;;;;;;;;;;2115009;27;4981;-76
2021/10/06 04:09:57;;;;;;;;;;;;;;;;;;2116057;27;1321;-76
2021/10/06 04:10:58;;;;;;;;;;;;;;;;;;2115113;27;1379;-75
2021/10/06 04:11:59;;;;;;;;;;;;;;;;;;2114754;27;1335;-75
2021/10/06 04:13:00;;;;;;;;;;;;;;;;;;2115557;27;1218;-76
2021/10/06 04:14:00;;;;;;;;;;;;;;;;;;2116173;27;3361;-75
2021/10/06 04:15:01;;;;;;;;;;;;;;;;;;2117369;27;4611;-75
2021/10/06 04:16:01;;;;;;;;;;;;;;;;;;2117675;27;1125;-75
2021/10/06 04:17:02;;;;;;;;;;;;;;;;;;2117037;27;1168;-75
2021/10/06 04:18:04;;;;;;;;;;;;;;;;;;2116544;27;1397;-76
2021/10/06 04:19:05;;;;;;;;;;;;;;;;;;2117353;27;2662;-75
2021/10/06 04:20:06;;;;;;;;;;;;;;;;;;2118229;27;1289;-75
2021/10/06 04:21:07;;;;;;;;;;;;;;;;;;2118867;27;1111;-75
2021/10/06 04:22:07;;;;;;;;;;;;;;;;;;2117304;27;1933;-75
2021/10/06 04:23:08;;;;;;;;;;;;;;;;;;2118914;27;1426;-75
2021/10/06 04:24:08;;;;;;;;;;;;;;;;;;2118138;27;1164;-75
2021/10/06 04:25:09;;;;;;;;;;;;;;;;;;2118028;27;3015;-76
2021/10/06 04:26:09;;;;;;;;;;;;;;;;;;2118296;27;1166;-75
2021/10/06 04:27:10;;;;;;;;;;;;;;;;;;2118721;27;1170;-75
2021/10/06 04:28:11;;;;;;;;;;;;;;;;;;2120064;27;1200;-75
2021/10/06 04:29:12;;;;;;;;;;;;;;;;;;2113988;27;4832;-75
2021/10/06 04:30:13;;;;;;;;;;;;;;;;;;2113357;27;1385;-76
2021/10/06 04:31:14;;;;;;;;;;;;;;;;;;2112767;27;1080;-76
2021/10/06 04:32:14;;;;;;;;;;;;;;;;;;2114152;27;1369;-75
2021/10/06 04:33:15;;;;;;;;;;;;;;;;;;2114554;27;1213;-75
2021/10/06 04:34:15;;;;;;;;;;;;;;;;;;2114198;27;1485;-75
2021/10/06 04:35:16;;;;;;;;;;;;;;;;;;2114009;27;2767;-76
2021/10/06 04:36:16;;;;;;;;;;;;;;;;;;2114232;27;1207;-76
2021/10/06 04:37:17;;;;;;;;;;;;;;;;;;2113649;27;4517;-75
2021/10/06 04:38:17;;;;;;;;;;;;;;;;;;2114188;27;1781;-76
2021/10/06 04:39:19;;;;;;;;;;;;;;;;;;2113641;27;2671;-75
2021/10/06 04:40:19;;;;;;;;;;;;;;;;;;2113531;27;1666;-76
2021/10/06 04:41:20;;;;;;;;;;;;;;;;;;2113610;27;1230;-75
2021/10/06 04:42:20;;;;;;;;;;;;;;;;;;2113569;27;1979;-76
2021/10/06 04:43:21;;;;;;;;;;;;;;;;;;2112922;27;4035;-76
2021/10/06 04:44:21;;;;;;;;;;;;;;;;;;2114289;27;1192;-76
2021/10/06 04:45:22;;;;;;;;;;;;;;;;;;2113453;27;1945;-75
2021/10/06 04:46:23;;;;;;;;;;;;;;;;;;2113329;27;1410;-76
2021/10/06 04:47:24;;;;;;;;;;;;;;;;;;2114436;27;1053;-76
2021/10/06 04:48:24;;;;;;;;;;;;;;;;;;2114410;27;2274;-75
2021/10/06 04:49:25;;;;;;;;;;;;;;;;;;2113973;27;4812;-75
2021/10/06 04:50:29;;;;;;;;;;;;;;;;;;2114934;27;1282;-75
2021/10/06 04:51:29;;;;;;;;;;;;;;;;;;2114890;27;1139;-76
2021/10/06 04:52:30;;;;;;;;;;;;;;;;;;2115213;27;1584;-75
2021/10/06 04:53:30;;;;;;;;;;;;;;;;;;2109259;27;4461;-76
2021/10/06 04:54:32;;;;;;;;;;;;;;;;;;2108845;27;1263;-76
2021/10/06 04:55:32;;;;;;;;;;;;;;;;;;2109487;27;1575;-75
2021/10/06 04:56:33;;;;;;;;;;;;;;;;;;2108330;27;1166;-75
2021/10/06 04:57:34;;;;;;;;;;;;;;;;;;2109513;27;1113;-75
2021/10/06 04:58:34;;;;;;;;;;;;;;;;;;2108522;27;4604;-75
2021/10/06 04:59:35;;;;;;;;;;;;;;;;;;2109000;27;1241;-75
2021/10/06 05:00:35;;;;;;;;;;;;;;;;;;2109143;27;1349;-75
2021/10/06 05:01:36;;;;;;;;;;;;;;;;;;2108855;27;2066;-76
2021/10/06 05:02:37;;;;;;;;;;;;;;;;;;2109320;27;1225;-75
2021/10/06 05:03:38;;;;;;;;;;;;;;;;;;2109026;27;2523;-76
2021/10/06 05:04:39;;;;;;;;;;;;;;;;;;2109393;27;1137;-76
2021/10/06 05:05:40;;;;;;;;;;;;;;;;;;2109000;27;969;-76
2021/10/06 05:06:40;;;;;;;;;;;;;;;;;;2109904;27;1037;-75
2021/10/06 05:07:41;;;;;;;;;;;;;;;;;;2109013;27;1036;-76
2021/10/06 05:08:43;;;;;;;;;;;;;;;;;;2108677;27;4774;-75
2021/10/06 05:09:44;;;;;;;;;;;;;;;;;;2108441;27;4900;-75
2021/10/06 05:10:44;;;;;;;;;;;;;;;;;;2107855;27;3291;-76
2021/10/06 05:11:45;;;;;;;;;;;;;;;;;;2108351;27;1202;-75
2021/10/06 05:12:45;;;;;;;;;;;;;;;;;;2108546;27;1137;-75
2021/10/06 05:13:46;;;;;;;;;;;;;;;;;;2108665;27;1379;-75
2021/10/06 05:14:46;;;;;;;;;;;;;;;;;;2108436;27;1216;-75
2021/10/06 05:15:47;;;;;;;;;;;;;;;;;;2108290;27;4108;-76
2021/10/06 05:16:48;;;;;;;;;;;;;;;;;;2108971;27;1249;-76
2021/10/06 05:17:49;;;;;;;;;;;;;;;;;;2108547;27;1052;-75
2021/10/06 05:18:49;;;;;;;;;;;;;;;;;;2108028;27;4097;-75
2021/10/06 05:19:50;;;;;;;;;;;;;;;;;;2108893;27;1426;-75
2021/10/06 05:20:51;;;;;;;;;;;;;;;;;;2108639;27;2006;-75
2021/10/06 05:21:51;;;;;;;;;;;;;;;;;;2108449;27;1913;-75
2021/10/06 05:22:53;;;;;;;;;;;;;;;;;;2108558;27;1367;-76
2021/10/06 05:23:53;;;;;;;;;;;;;;;;;;2108411;27;1165;-75
2021/10/06 05:24:54;;;;;;;;;;;;;;;;;;2108583;27;1080;-75
2021/10/06 05:25:54;;;;;;;;;;;;;;;;;;2107717;27;4903;-76
2021/10/06 05:26:55;;;;;;;;;;;;;;;;;;2108905;27;1137;-76
2021/10/06 05:27:56;;;;;;;;;;;;;;;;;;2108833;27;1220;-75
2021/10/06 05:28:57;;;;;;;;;;;;;;;;;;2108482;27;4891;-75
2021/10/06 05:29:57;;;;;;;;;;;;;;;;;;2109143;27;1362;-75
2021/10/06 05:30:58;;;;;;;;;;;;;;;;;;2109943;27;1526;-75
2021/10/06 05:32:03;;;;;;;;;;;;;;;;;;2109079;27;1464;-76
2021/10/06 05:33:04;;;;;;;;;;;;;;;;;;2107832;27;1076;-75
2021/10/06 05:34:04;;;;;;;;;;;;;;;;;;2107133;27;4524;-75
2021/10/06 05:35:05;;;;;;;;;;;;;;;;;;2106675;27;4962;-76
2021/10/06 05:36:05;;;;;;;;;;;;;;;;;;2108124;27;1064;-76
2021/10/06 05:37:06;;;;;;;;;;;;;;;;;;2108147;27;1328;-76
2021/10/06 05:38:07;;;;;;;;;;;;;;;;;;2108661;27;1165;-75
2021/10/06 05:39:08;;;;;;;;;;;;;;;;;;2108338;27;4735;-75
2021/10/06 05:40:08;;;;;;;;;;;;;;;;;;2110271;27;5096;-75
2021/10/06 05:41:09;;;;;;;;;;;;;;;;;;2112551;27;1434;-75
2021/10/06 05:42:09;;;;;;;;;;;;;;;;;;2112143;27;1975;-75
2021/10/06 05:43:10;;;;;;;;;;;;;;;;;;2113494;27;1255;-75
2021/10/06 05:44:10;;;;;;;;;;;;;;;;;;2107856;27;4923;-75
2021/10/06 05:45:11;;;;;;;;;;;;;;;;;;2107493;27;4725;-76
2021/10/06 05:46:12;;;;;;;;;;;;;;;;;;2107044;27;4686;-75
2021/10/06 05:47:12;;;;;;;;;;;;;;;;;;2107313;27;1099;-75
2021/10/06 05:48:16;;;;;;;;;;;;;;;;;;2107733;27;1027;-75
2021/10/06 05:49:16;;;;;;;;;;;;;;;;;;2106649;27;4721;-75
2021/10/06 05:50:17;;;;;;;;;;;;;;;;;;2107127;27;1344;-75
2021/10/06 05:51:17;;;;;;;;;;;;;;;;;;2107295;27;4984;-75
2021/10/06 05:52:18;;;;;;;;;;;;;;;;;;2108125;27;1248;-75
2021/10/06 05:53:18;;;;;;;;;;;;;;;;;;2107812;27;1375;-76
2021/10/06 05:54:20;;;;;;;;;;;;;;;;;;2107215;27;1181;-75
2021/10/06 05:55:21;;;;;;;;;;;;;;;;;;2107801;27;1034;-75
2021/10/06 05:56:21;;;;;;;;;;;;;;;;;;2107430;27;1104;-75
2021/10/06 05:57:22;;;;;;;;;;;;;;;;;;2106995;27;5404;-75
2021/10/06 05:58:23;;;;;;;;;;;;;;;;;;2107672;27;5210;-75
2021/10/06 05:59:24;;;;;;;;;;;;;;;;;;2107770;27;1137;-76
2021/10/06 06:00:24;;;;;;;;;;;;;;;;;;2107417;27;1370;-75
2021/10/06 06:01:26;;;;;;;;;;;;;;;;;;2107348;27;1216;-76
2021/10/06 06:02:27;;;;;;;;;;;;;;;;;;2106993;27;4335;-75
2021/10/06 06:03:28;;;;;;;;;;;;;;;;;;2106697;27;5178;-75
2021/10/06 06:04:28;;;;;;;;;;;;;;;;;;2106277;27;4820;-75
2021/10/06 06:05:29;;;;;;;;;;;;;;;;;;2106394;27;1167;-75
2021/10/06 06:06:30;;;;;;;;;;;;;;;;;;2107857;27;3187;-75
2021/10/06 06:07:30;;;;;;;;;;;;;;;;;;2106420;27;4930;-75
2021/10/06 06:08:31;;;;;;;;;;;;;;;;;;2104996;27;5039;-76
2021/10/06 06:09:31;;;;;;;;;;;;;;;;;;2106243;27;4637;-75
2021/10/06 06:10:32;;;;;;;;;;;;;;;;;;2106259;27;2770;-75
2021/10/06 06:11:33;;;;;;;;;;;;;;;;;;2106542;27;3136;-75
2021/10/06 06:12:34;;;;;;;;;;;;;;;;;;2106071;27;3210;-75
2021/10/06 06:13:35;;;;;;;;;;;;;;;;;;2105456;27;3737;-76
2021/10/06 06:14:35;;;;;;;;;;;;;;;;;;2106286;27;3572;-75
2021/10/06 06:15:36;;;;;;;;;;;;;;;;;;2107170;27;4513;-75
2021/10/06 06:16:36;;;;;;;;;;;;;;;;;;2105419;27;2957;-75
2021/10/06 06:17:38;;;;;;;;;;;;;;;;;;2105624;27;2723;-75
2021/10/06 06:18:38;;;;;;;;;;;;;;;;;;2105548;27;2340;-75
2021/10/06 06:19:39;;;;;;;;;;;;;;;;;;2106567;27;2065;-75
2021/10/06 06:20:40;;;;;;;;;;;;;;;;;;2106596;27;2758;-76
2021/10/06 06:21:42;;;;;;;;;;;;;;;;;;2106835;27;2381;-76
2021/10/06 06:22:43;;;;;;;;;;;;;;;;;;2105849;27;4291;-75
2021/10/06 06:23:43;;;;;;;;;;;;;;;;;;2106782;27;5141;-76
2021/10/06 06:24:44;;;;;;;;;;;;;;;;;;2106912;27;3588;-75
2021/10/06 06:25:44;;;;;;;;;;;;;;;;;;2105816;27;4507;-75
2021/10/06 06:26:45;;;;;;;;;;;;;;;;;;2107494;27;5635;-75
2021/10/06 06:27:45;;;;;;;;;;;;;;;;;;2106857;27;4689;-76
2021/10/06 06:28:47;;;;;;;;;;;;;;;;;;2106788;27;4726;-75
2021/10/06 06:29:47;;;;;;;;;;;;;;;;;;2106605;27;3658;-75
2021/10/06 06:30:48;;;;;;;;;;;;;;;;;;2106849;27;4738;-76
2021/10/06 06:31:48;;;;;;;;;;;;;;;;;;2107700;27;1071;-75
2021/10/06 06:32:51;;;;;;;;;;;;;;;;;;2103751;27;4722;-75
2021/10/06 06:33:51;;;;;;;;;;;;;;;;;;2107012;27;4926;-75
2021/10/06 06:34:52;;;;;;;;;;;;;;;;;;2107226;27;3474;-76
2021/10/06 06:35:53;;;;;;;;;;;;;;;;;;2106933;27;1177;-76
2021/10/06 06:36:54;;;;;;;;;;;;;;;;;;2105289;27;4892;-76
2021/10/06 06:37:55;;;;;;;;;;;;;;;;;;2107145;27;4579;-75
2021/10/06 06:38:55;;;;;;;;;;;;;;;;;;2104664;27;4784;-76
2021/10/06 06:39:56;;;;;;;;;;;;;;;;;;2107461;27;1305;-76
2021/10/06 06:40:57;;;;;;;;;;;;;;;;;;2106341;27;4991;-76
2021/10/06 06:41:57;;;;;;;;;;;;;;;;;;2106932;27;4828;-75
2021/10/06 06:42:58;;;;;;;;;;;;;;;;;;2105878;27;5129;-75
2021/10/06 06:44:00;;;;;;;;;;;;;;;;;;2107051;27;4497;-76
2021/10/06 06:45:01;;;;;;;;;;;;;;;;;;2107010;27;4793;-76
2021/10/06 06:46:02;;;;;;;;;;;;;;;;;;2107602;27;4923;-76
2021/10/06 06:47:02;;;;;;;;;;;;;;;;;;2106509;27;1512;-76
2021/10/06 06:48:03;;;;;;;;;;;;;;;;;;2107978;27;1222;-75
2021/10/06 06:49:03;;;;;;;;;;;;;;;;;;2107414;27;4428;-75
2021/10/06 06:50:04;;;;;;;;;;;;;;;;;;2107073;27;1342;-76
2021/10/06 06:51:05;;;;;;;;;;;;;;;;;;2107343;27;1379;-75
2021/10/06 06:52:06;;;;;;;;;;;;;;;;;;2107375;27;1137;-75
2021/10/06 06:53:07;;;;;;;;;;;;;;;;;;2106847;27;4917;-75
2021/10/06 06:54:07;;;;;;;;;;;;;;;;;;2107795;27;1189;-75
2021/10/06 06:55:08;;;;;;;;;;;;;;;;;;2107617;27;1146;-75
2021/10/06 06:56:08;;;;;;;;;;;;;;;;;;2107985;27;1204;-75
2021/10/06 06:57:09;;;;;;;;;;;;;;;;;;2111729;27;4840;-75
2021/10/06 06:58:10;;;;;;;;;;;;;;;;;;2109989;27;3970;-75
2021/10/06 06:59:11;;;;;;;;;;;;;;;;;;2107974;27;4934;-76
2021/10/06 07:00:11;;;;;;;;;;;;;;;;;;2107685;27;5087;-76
2021/10/06 07:01:13;;;;;;;;;;;;;;;;;;2112054;27;4880;-76
2021/10/06 07:02:13;;;;;;;;;;;;;;;;;;2110794;27;4979;-75